createdAt,value
2018-11-26T00:00:54.272Z,98169.52
2018-11-26T00:03:22.754Z,98164.50
2018-11-26T00:05:51.261Z,98165.95
2018-11-26T00:08:19.981Z,98157.56
2018-11-26T00:11:31.062Z,98163.09
2018-11-26T00:13:59.554Z,98155.61
2018-11-26T00:16:28.255Z,98158.88
2018-11-26T00:18:56.755Z,98155.35
2018-11-26T00:21:25.316Z,98153.40
2018-11-26T00:23:53.783Z,98146.88
2018-11-26T00:26:22.266Z,98144.50
2018-11-26T00:28:50.795Z,98142.80
2018-11-26T00:31:27.659Z,98144.08
2018-11-26T00:33:58.676Z,98142.09
2018-11-26T00:36:30.633Z,98143.22
2018-11-26T00:38:59.331Z,98141.86
2018-11-26T00:41:29.121Z,98145.63
2018-11-26T00:43:57.613Z,98139.05
2018-11-26T00:46:26.290Z,98139.09
2018-11-26T00:48:55.478Z,98145.70
2018-11-26T00:51:23.980Z,98143.48
2018-11-26T00:53:52.440Z,98147.36
2018-11-26T00:56:20.881Z,98148.67
2018-11-26T00:58:49.509Z,98139.55
2018-11-26T01:01:17.986Z,98141.66
2018-11-26T01:03:46.571Z,98131.86
2018-11-26T01:06:15.063Z,98142.95
2018-11-26T01:08:43.573Z,98137.78
2018-11-26T01:11:12.087Z,98140.75
2018-11-26T01:13:40.611Z,98142.98
2018-11-26T01:16:09.172Z,98136.17
2018-11-26T01:18:37.744Z,98141.06
2018-11-26T01:21:06.281Z,98137.11
2018-11-26T01:23:34.764Z,98145.36
2018-11-26T01:26:03.252Z,98152.77
2018-11-26T01:28:31.689Z,98144.51
2018-11-26T01:31:00.209Z,98144.08
2018-11-26T01:33:28.733Z,98143.35
2018-11-26T01:35:57.239Z,98145.41
2018-11-26T01:38:25.789Z,98149.45
2018-11-26T01:40:54.328Z,98149.45
2018-11-26T01:43:22.895Z,98148.45
2018-11-26T01:45:51.419Z,98153.81
2018-11-26T01:48:20.941Z,98152.51
2018-11-26T01:50:49.443Z,98155.83
2018-11-26T01:53:18.025Z,98149.34
2018-11-26T01:55:46.501Z,98144.80
2018-11-26T01:58:15.032Z,98145.23
2018-11-26T02:00:43.524Z,98146.06
2018-11-26T02:03:12.109Z,98146.16
2018-11-26T02:05:40.625Z,98144.72
2018-11-26T02:08:09.471Z,98149.61
2018-11-26T02:10:37.881Z,98144.25
2018-11-26T02:13:06.342Z,98146.89
2018-11-26T02:15:38.951Z,98148.20
2018-11-26T02:18:08.998Z,98152.97
2018-11-26T02:20:37.568Z,98150.06
2018-11-26T02:23:06.248Z,98143.36
2018-11-26T02:25:34.677Z,98141.48
2018-11-26T02:28:03.607Z,98131.18
2018-11-26T02:30:32.119Z,98131.87
2018-11-26T02:33:00.601Z,98128.93
2018-11-26T02:35:29.065Z,98121.96
2018-11-26T02:37:57.566Z,98118.34
2018-11-26T02:40:27.444Z,98124.52
2018-11-26T02:42:55.880Z,98121.11
2018-11-26T02:45:24.361Z,98122.28
2018-11-26T02:47:53.244Z,98118.14
2018-11-26T02:50:21.684Z,98121.27
2018-11-26T02:52:51.104Z,98113.20
2018-11-26T02:55:19.655Z,98108.55
2018-11-26T02:57:48.435Z,98107.59
2018-11-26T03:00:16.902Z,98100.22
2018-11-26T03:02:45.407Z,98107.16
2018-11-26T03:05:18.527Z,98104.26
2018-11-26T03:07:47.091Z,98104.90
2018-11-26T03:10:15.656Z,98109.54
2018-11-26T03:12:44.207Z,98106.56
2018-11-26T03:15:12.898Z,98096.98
2018-11-26T03:17:41.382Z,98096.30
2018-11-26T03:20:11.019Z,98102.44
2018-11-26T03:22:39.507Z,98100.73
2018-11-26T03:25:10.275Z,98097.04
2018-11-26T03:27:38.796Z,98102.18
2018-11-26T03:30:11.799Z,98104.65
2018-11-26T03:32:40.376Z,98093.34
2018-11-26T03:35:09.859Z,98099.93
2018-11-26T03:37:38.352Z,98094.95
2018-11-26T03:40:09.275Z,98088.87
2018-11-26T03:42:37.791Z,98099.88
2018-11-26T03:45:10.008Z,98103.70
2018-11-26T03:47:39.602Z,98095.97
2018-11-26T03:50:08.980Z,98109.38
2018-11-26T03:52:37.392Z,98104.73
2018-11-26T03:55:07.289Z,98107.37
2018-11-26T03:57:35.866Z,98112.56
2018-11-26T04:00:04.711Z,98109.88
2018-11-26T04:02:33.162Z,98109.45
2018-11-26T04:05:01.643Z,98109.45
2018-11-26T04:07:30.144Z,98107.16
2018-11-26T04:09:58.742Z,98113.10
2018-11-26T04:12:27.218Z,98115.27
2018-11-26T04:14:55.745Z,98103.62
2018-11-26T04:17:24.390Z,98104.80
2018-11-26T04:19:52.881Z,98104.09
2018-11-26T04:22:21.412Z,98102.73
2018-11-26T04:24:49.971Z,98103.75
2018-11-26T04:27:18.668Z,98102.78
2018-11-26T04:29:47.110Z,98108.27
2018-11-26T04:32:15.553Z,98099.33
2018-11-26T04:34:44.107Z,98103.41
2018-11-26T04:37:12.636Z,98103.11
2018-11-26T04:39:41.736Z,98102.14
2018-11-26T04:42:10.219Z,98103.27
2018-11-26T04:44:38.701Z,98101.80
2018-11-26T04:47:07.621Z,98101.88
2018-11-26T04:49:36.174Z,98099.20
2018-11-26T04:52:04.597Z,98100.99
2018-11-26T04:54:33.090Z,98098.70
2018-11-26T04:57:01.972Z,98092.74
2018-11-26T04:59:50.389Z,98097.30
2018-11-26T05:02:20.772Z,98097.16
2018-11-26T05:04:49.307Z,98095.84
2018-11-26T05:07:18.272Z,98096.06
2018-11-26T05:09:46.765Z,98096.34
2018-11-26T05:12:15.247Z,98099.67
2018-11-26T05:14:43.731Z,98106.13
2018-11-26T05:17:12.192Z,98107.02
2018-11-26T05:19:40.660Z,98107.88
2018-11-26T05:22:09.120Z,98110.13
2018-11-26T05:24:37.831Z,98110.42
2018-11-26T05:27:07.127Z,98103.71
2018-11-26T05:29:35.581Z,98106.09
2018-11-26T05:32:04.004Z,98101.33
2018-11-26T05:34:32.451Z,98103.50
2018-11-26T05:37:00.993Z,98107.66
2018-11-26T05:39:29.488Z,98106.90
2018-11-26T05:41:58.035Z,98102.65
2018-11-26T05:44:26.530Z,98108.47
2018-11-26T05:46:55.072Z,98109.24
2018-11-26T05:49:23.932Z,98110.56
2018-11-26T05:51:52.481Z,98106.95
2018-11-26T05:54:20.977Z,98113.83
2018-11-26T05:56:50.186Z,98120.98
2018-11-26T05:59:18.675Z,98122.05
2018-11-26T06:01:48.673Z,98125.58
2018-11-26T06:04:17.199Z,98126.70
2018-11-26T06:06:46.396Z,98119.31
2018-11-26T06:09:14.875Z,98122.21
2018-11-26T06:11:43.460Z,98123.86
2018-11-26T06:14:12.015Z,98125.98
2018-11-26T06:16:40.573Z,98125.47
2018-11-26T06:19:09.317Z,98129.88
2018-11-26T06:21:37.848Z,98130.89
2018-11-26T06:24:06.720Z,98131.78
2018-11-26T06:26:35.326Z,98132.67
2018-11-26T06:29:03.846Z,98136.28
2018-11-26T06:31:32.304Z,98142.41
2018-11-26T06:34:00.785Z,98141.68
2018-11-26T06:36:29.352Z,98138.12
2018-11-26T06:38:57.816Z,98144.34
2018-11-26T06:41:26.384Z,98137.44
2018-11-26T06:43:54.828Z,98136.25
2018-11-26T06:46:23.278Z,98128.78
2018-11-26T06:48:51.729Z,98122.71
2018-11-26T06:51:20.218Z,98129.10
2018-11-26T06:53:48.773Z,98134.20
2018-11-26T06:56:17.255Z,98130.80
2018-11-26T06:58:45.706Z,98136.83
2018-11-26T07:01:14.245Z,98134.49
2018-11-26T07:03:42.686Z,98134.30
2018-11-26T07:06:11.315Z,98135.06
2018-11-26T07:08:40.040Z,98137.55
2018-11-26T07:11:08.527Z,98144.41
2018-11-26T07:13:36.958Z,98147.76
2018-11-26T07:16:06.372Z,98154.47
2018-11-26T07:18:35.120Z,98153.50
2018-11-26T07:21:03.655Z,98151.98
2018-11-26T07:23:32.224Z,98154.69
2018-11-26T07:26:00.737Z,98163.20
2018-11-26T07:28:29.321Z,98163.62
2018-11-26T07:30:58.325Z,98167.05
2018-11-26T07:33:27.346Z,98168.25
2018-11-26T07:35:56.071Z,98171.09
2018-11-26T07:38:24.590Z,98174.59
2018-11-26T07:40:53.121Z,98185.28
2018-11-26T07:43:21.624Z,98188.88
2018-11-26T07:45:50.130Z,98189.31
2018-11-26T07:48:18.593Z,98194.59
2018-11-26T07:50:47.149Z,98202.63
2018-11-26T07:53:15.649Z,98207.09
2018-11-26T07:55:44.391Z,98207.58
2018-11-26T07:58:12.890Z,98209.40
2018-11-26T08:00:41.357Z,98204.80
2018-11-26T08:03:09.786Z,98207.48
2018-11-26T08:05:38.761Z,98224.70
2018-11-26T08:08:07.288Z,98218.77
2018-11-26T08:12:00.192Z,98222.06
2018-11-26T08:14:28.780Z,98235.05
2018-11-26T08:16:57.303Z,98241.52
2018-11-26T08:19:25.875Z,98243.80
2018-11-26T08:21:54.384Z,98245.38
2018-11-26T08:24:22.821Z,98246.60
2018-11-26T08:26:51.336Z,98249.00
2018-11-26T08:29:19.866Z,98249.27
2018-11-26T08:31:48.361Z,98249.67
2018-11-26T08:34:16.828Z,98254.89
2018-11-26T08:36:46.978Z,98257.30
2018-11-26T08:39:18.757Z,98266.16
2018-11-26T08:41:53.571Z,98260.85
2018-11-26T08:44:28.006Z,98262.77
2018-11-26T08:48:04.700Z,98265.18
2018-11-26T08:50:33.736Z,98264.61
2018-11-26T08:53:02.220Z,98267.66
2018-11-26T08:55:30.683Z,98277.86
2018-11-26T08:58:01.672Z,98266.72
2018-11-26T09:00:32.288Z,98267.50
2018-11-26T09:03:05.776Z,98269.25
2018-11-26T09:05:35.993Z,98268.56
2018-11-26T09:08:04.499Z,98265.97
2018-11-26T09:10:33.024Z,98272.78
2018-11-26T09:13:02.486Z,98269.43
2018-11-26T09:15:30.922Z,98266.45
2018-11-26T09:17:59.393Z,98268.45
2018-11-26T09:20:28.857Z,98270.20
2018-11-26T09:22:57.795Z,98272.08
2018-11-26T09:25:26.393Z,98269.86
2018-11-26T09:27:55.635Z,98278.68
2018-11-26T09:30:24.085Z,98280.03
2018-11-26T09:32:52.646Z,98275.34
2018-11-26T09:35:21.087Z,98284.75
2018-11-26T09:37:49.600Z,98278.57
2018-11-26T09:40:18.839Z,98286.49
2018-11-26T09:42:47.411Z,98295.97
2018-11-26T09:45:16.976Z,98285.14
2018-11-26T09:47:45.738Z,98288.28
2018-11-26T09:50:16.512Z,98283.80
2018-11-26T09:52:45.375Z,98283.70
2018-11-26T09:55:14.731Z,98286.88
2018-11-26T09:57:43.213Z,98282.17
2018-11-26T10:00:18.794Z,98285.48
2018-11-26T10:02:48.607Z,98278.97
2018-11-26T10:05:19.281Z,98284.94
2018-11-26T10:07:47.726Z,98282.77
2018-11-26T10:10:16.269Z,98276.97
2018-11-26T10:12:45.665Z,98286.61
2018-11-26T10:15:16.278Z,98279.71
2018-11-26T10:17:44.858Z,98272.36
2018-11-26T10:20:13.426Z,98271.94
2018-11-26T10:22:43.261Z,98274.94
2018-11-26T10:25:15.334Z,98277.14
2018-11-26T10:27:44.265Z,98271.34
2018-11-26T10:30:15.593Z,98276.12
2018-11-26T10:32:45.617Z,98273.59
2018-11-26T10:35:15.014Z,98272.84
2018-11-26T10:37:43.549Z,98277.25
2018-11-26T10:40:18.103Z,98276.86
2018-11-26T10:42:47.605Z,98275.72
2018-11-26T10:45:19.987Z,98273.53
2018-11-26T10:47:48.495Z,98277.83
2018-11-26T10:50:19.433Z,98276.17
2018-11-26T10:52:50.670Z,98281.80
2018-11-26T10:55:23.385Z,98277.63
2018-11-26T10:57:51.977Z,98284.30
2018-11-26T11:00:25.897Z,98275.90
2018-11-26T11:02:55.059Z,98281.67
2018-11-26T11:05:23.531Z,98269.57
2018-11-26T11:07:52.097Z,98274.98
2018-11-26T11:10:21.987Z,98279.05
2018-11-26T11:12:51.183Z,98276.39
2018-11-26T11:15:19.682Z,98272.91
2018-11-26T11:17:48.185Z,98275.10
2018-11-26T11:20:20.504Z,98277.97
2018-11-26T11:22:49.030Z,98271.13
2018-11-26T11:25:18.420Z,98273.39
2018-11-26T11:27:47.175Z,98275.34
2018-11-26T11:30:16.718Z,98271.18
2018-11-26T11:32:45.338Z,98265.55
2018-11-26T11:35:14.585Z,98265.89
2018-11-26T11:37:43.896Z,98267.72
2018-11-26T11:40:18.928Z,98265.48
2018-11-26T11:42:48.668Z,98265.55
2018-11-26T11:45:18.074Z,98266.11
2018-11-26T11:47:46.641Z,98272.71
2018-11-26T11:50:16.213Z,98267.98
2018-11-26T11:52:44.972Z,98273.95
2018-11-26T11:55:15.860Z,98274.24
2018-11-26T11:57:44.371Z,98277.44
2018-11-26T12:00:23.034Z,98275.98
2018-11-26T12:02:51.841Z,98274.97
2018-11-26T12:05:21.965Z,98280.55
2018-11-26T12:07:50.454Z,98279.44
2018-11-26T12:10:18.978Z,98283.65
2018-11-26T12:12:47.532Z,98286.81
2018-11-26T12:15:16.877Z,98286.80
2018-11-26T12:17:46.122Z,98285.84
2018-11-26T12:20:15.492Z,98286.39
2018-11-26T12:22:45.112Z,98290.97
2018-11-26T12:25:15.826Z,98288.13
2018-11-26T12:27:44.280Z,98292.52
2018-11-26T12:30:23.466Z,98288.13
2018-11-26T12:32:52.429Z,98289.33
2018-11-26T12:35:20.930Z,98292.05
2018-11-26T12:37:49.369Z,98288.05
2018-11-26T12:40:21.771Z,98293.45
2018-11-26T12:42:51.471Z,98299.50
2018-11-26T12:45:22.933Z,98298.81
2018-11-26T12:47:51.523Z,98299.16
2018-11-26T12:50:20.228Z,98310.22
2018-11-26T12:52:48.706Z,98301.59
2018-11-26T12:55:18.405Z,98301.25
2018-11-26T12:57:47.845Z,98298.61
2018-11-26T13:00:21.369Z,98298.02
2018-11-26T13:02:53.132Z,98301.12
2018-11-26T13:05:21.742Z,98300.44
2018-11-26T13:07:50.284Z,98298.41
2018-11-26T13:10:20.269Z,98300.65
2018-11-26T13:12:50.084Z,98302.13
2018-11-26T13:15:20.538Z,98299.75
2018-11-26T13:17:49.065Z,98293.92
2018-11-26T13:20:26.422Z,98299.33
2018-11-26T13:22:55.621Z,98297.45
2018-11-26T13:25:25.513Z,98297.50
2018-11-26T13:28:05.093Z,98298.98
2018-11-26T13:30:40.621Z,98300.59
2018-11-26T13:33:10.739Z,98305.51
2018-11-26T13:35:39.755Z,98305.33
2018-11-26T13:38:08.954Z,98297.95
2018-11-26T13:40:38.322Z,98301.99
2018-11-26T13:43:09.356Z,98295.53
2018-11-26T13:45:39.814Z,98308.70
2018-11-26T13:48:09.769Z,98307.55
2018-11-26T13:50:41.767Z,98310.88
2018-11-26T13:53:11.475Z,98309.90
2018-11-26T13:55:39.956Z,98311.98
2018-11-26T13:58:08.855Z,98311.43
2018-11-26T14:00:37.644Z,98309.21
2018-11-26T14:03:06.888Z,98309.98
2018-11-26T14:05:35.605Z,98312.06
2018-11-26T14:08:04.072Z,98320.74
2018-11-26T14:10:32.612Z,98317.34
2018-11-26T14:13:08.838Z,98323.87
2018-11-26T14:15:37.949Z,98324.84
2018-11-26T14:18:06.518Z,98322.68
2018-11-26T14:20:34.977Z,98325.83
2018-11-26T14:23:04.533Z,98332.01
2018-11-26T14:25:33.237Z,98328.89
2018-11-26T14:28:01.684Z,98335.55
2018-11-26T14:30:31.276Z,98334.22
2018-11-26T14:33:00.256Z,98343.12
2018-11-26T14:35:28.560Z,98339.84
2018-11-26T14:37:59.534Z,98344.09
2018-11-26T14:40:31.406Z,98350.10
2018-11-26T14:43:01.319Z,98347.46
2018-11-26T14:45:29.836Z,98356.13
2018-11-26T14:47:58.593Z,98357.20
2018-11-26T14:50:34.762Z,98354.33
2018-11-26T14:53:05.526Z,98354.37
2018-11-26T14:55:38.165Z,98357.98
2018-11-26T14:58:07.068Z,98361.28
2018-11-26T15:00:35.654Z,98359.21
2018-11-26T15:03:04.623Z,98371.77
2018-11-26T15:05:33.159Z,98372.88
2018-11-26T15:08:01.566Z,98377.23
2018-11-26T15:10:30.084Z,98380.84
2018-11-26T15:12:58.574Z,98383.65
2018-11-26T15:15:27.721Z,98381.83
2018-11-26T15:17:56.229Z,98382.95
2018-11-26T15:20:27.561Z,98387.60
2018-11-26T15:22:56.908Z,98388.34
2018-11-26T15:25:26.734Z,98389.59
2018-11-26T15:27:56.407Z,98388.66
2018-11-26T15:30:24.911Z,98395.84
2018-11-26T15:32:53.451Z,98393.61
2018-11-26T15:35:23.590Z,98390.20
2018-11-26T15:37:52.023Z,98390.02
2018-11-26T15:40:21.543Z,98400.42
2018-11-26T15:42:50.338Z,98402.29
2018-11-26T15:45:24.746Z,98409.98
2018-11-26T15:47:54.120Z,98410.55
2018-11-26T15:50:22.718Z,98409.98
2018-11-26T15:52:52.001Z,98412.66
2018-11-26T15:55:21.624Z,98420.11
2018-11-26T15:57:50.437Z,98419.05
2018-11-26T16:00:22.036Z,98424.13
2018-11-26T16:02:51.060Z,98416.77
2018-11-26T16:05:23.718Z,98421.77
2018-11-26T16:07:52.686Z,98432.92
2018-11-26T16:10:21.188Z,98432.73
2018-11-26T16:12:54.371Z,98434.95
2018-11-26T16:15:24.222Z,98441.81
2018-11-26T16:17:53.592Z,98443.20
2018-11-26T16:20:23.471Z,98440.21
2018-11-26T16:22:52.800Z,98440.88
2018-11-26T16:25:23.436Z,98436.68
2018-11-26T16:27:51.905Z,98451.99
2018-11-26T16:30:20.394Z,98447.73
2018-11-26T16:32:53.250Z,98458.23
2018-11-26T16:35:23.868Z,98461.34
2018-11-26T16:37:52.484Z,98456.87
2018-11-26T16:40:20.899Z,98456.82
2018-11-26T16:42:49.753Z,98455.38
2018-11-26T16:45:20.074Z,98463.13
2018-11-26T16:47:50.774Z,98471.11
2018-11-26T16:50:20.312Z,98472.64
2018-11-26T16:52:48.798Z,98467.49
2018-11-26T16:55:18.064Z,98469.28
2018-11-26T16:57:46.714Z,98477.07
2018-11-26T17:00:22.083Z,98475.34
2018-11-26T17:02:53.928Z,98483.89
2018-11-26T17:05:25.395Z,98484.08
2018-11-26T17:07:54.818Z,98479.81
2018-11-26T17:10:23.362Z,98480.22
2018-11-26T17:12:52.554Z,98482.47
2018-11-26T17:15:21.165Z,98438.86
2018-11-26T17:17:49.741Z,98483.44
2018-11-26T17:20:19.219Z,98482.39
2018-11-26T17:22:47.793Z,98483.20
2018-11-26T17:25:17.338Z,98490.82
2018-11-26T17:27:47.153Z,98490.02
2018-11-26T17:30:24.113Z,98493.24
2018-11-26T17:32:58.170Z,98497.64
2018-11-26T17:35:26.938Z,98503.09
2018-11-26T17:37:55.477Z,98495.92
2018-11-26T17:40:24.573Z,98494.75
2018-11-26T17:42:54.709Z,98504.03
2018-11-26T17:45:24.162Z,98514.70
2018-11-26T17:47:56.604Z,98517.73
2018-11-26T17:50:27.367Z,98521.47
2018-11-26T17:52:56.095Z,98519.15
2018-11-26T17:55:24.489Z,98520.25
2018-11-26T17:57:52.981Z,98523.76
2018-11-26T18:00:23.100Z,98525.20
2018-11-26T18:02:54.234Z,98527.55
2018-11-26T18:05:27.359Z,98532.28
2018-11-26T18:08:01.689Z,98538.55
2018-11-26T18:10:30.233Z,98537.91
2018-11-26T18:12:59.665Z,98534.30
2018-11-26T18:15:28.319Z,98540.43
2018-11-26T18:17:57.178Z,98542.96
2018-11-26T18:20:25.655Z,98542.61
2018-11-26T18:22:55.069Z,98545.53
2018-11-26T18:25:24.374Z,98557.10
2018-11-26T18:27:58.762Z,98554.20
2018-11-26T18:30:31.017Z,98556.77
2018-11-26T18:33:00.001Z,98555.69
2018-11-26T18:35:28.593Z,98560.28
2018-11-26T18:37:57.148Z,98563.70
2018-11-26T18:40:25.592Z,98563.48
2018-11-26T18:42:54.100Z,98569.75
2018-11-26T18:45:22.570Z,98577.47
2018-11-26T18:47:51.051Z,98573.81
2018-11-26T18:50:20.807Z,98578.98
2018-11-26T18:52:50.929Z,98576.95
2018-11-26T18:55:19.891Z,98585.06
2018-11-26T18:57:48.398Z,98583.40
2018-11-26T19:00:21.127Z,98595.73
2018-11-26T19:02:49.831Z,98587.47
2018-11-26T19:05:19.295Z,98588.72
2018-11-26T19:07:49.470Z,98591.63
2018-11-26T19:10:20.185Z,98592.90
2018-11-26T19:12:51.712Z,98598.22
2018-11-26T19:15:22.028Z,98600.04
2018-11-26T19:17:51.355Z,98605.94
2018-11-26T19:20:19.941Z,98609.73
2018-11-26T19:22:48.435Z,98610.36
2018-11-26T19:25:21.539Z,98620.14
2018-11-26T19:27:50.416Z,98622.95
2018-11-26T19:30:23.061Z,98622.77
2018-11-26T19:32:49.080Z,98631.69
2018-11-26T19:35:18.355Z,98625.33
2018-11-26T19:37:46.882Z,98635.88
2018-11-26T19:40:17.101Z,98639.51
2018-11-26T19:42:47.426Z,98642.00
2018-11-26T19:45:18.161Z,98644.64
2018-11-26T19:47:46.930Z,98642.23
2018-11-26T19:50:17.453Z,98646.92
2018-11-26T19:52:47.389Z,98656.77
2018-11-26T19:55:19.365Z,98655.55
2018-11-26T19:57:47.816Z,98649.45
2018-11-26T20:00:17.638Z,98658.17
2018-11-26T20:02:49.353Z,98659.05
2018-11-26T20:05:23.326Z,98665.98
2018-11-26T20:07:51.836Z,98668.61
2018-11-26T20:10:20.407Z,98670.75
2018-11-26T20:12:48.977Z,98645.63
2018-11-26T20:15:18.089Z,98678.67
2018-11-26T20:17:46.641Z,98682.87
2018-11-26T20:20:15.122Z,98691.63
2018-11-26T20:22:43.638Z,98692.95
2018-11-26T20:25:14.345Z,98699.55
2018-11-26T20:27:43.135Z,98707.31
2018-11-26T20:30:16.430Z,98710.55
2018-11-26T20:32:47.010Z,98714.05
2018-11-26T20:35:15.470Z,98718.23
2018-11-26T20:37:44.617Z,98720.75
2018-11-26T20:40:15.102Z,98713.31
2018-11-26T20:42:49.579Z,98727.09
2018-11-26T20:45:18.045Z,98726.97
2018-11-26T20:47:47.217Z,98732.72
2018-11-26T20:50:20.281Z,98731.76
2018-11-26T20:52:49.428Z,98743.48
2018-11-26T20:55:19.189Z,98745.79
2018-11-26T20:57:48.443Z,98748.05
2018-11-26T21:00:18.570Z,98751.41
2018-11-26T21:02:48.151Z,98752.09
2018-11-26T21:05:16.765Z,98750.55
2018-11-26T21:07:45.233Z,98754.52
2018-11-26T21:10:14.743Z,98756.07
2018-11-26T21:12:43.216Z,98758.33
2018-11-26T21:15:14.653Z,98760.36
2018-11-26T21:17:44.272Z,98759.52
2018-11-26T21:20:15.034Z,98760.00
2018-11-26T21:22:43.951Z,98759.89
2018-11-26T21:25:14.862Z,98759.56
2018-11-26T21:27:43.408Z,98767.20
2018-11-26T21:30:16.149Z,98769.50
2018-11-26T21:32:46.733Z,98773.95
2018-11-26T21:35:16.417Z,98774.64
2018-11-26T21:37:46.377Z,98776.31
2018-11-26T21:40:20.322Z,98772.51
2018-11-26T21:42:44.988Z,98772.37
2018-11-26T21:45:19.458Z,98771.52
2018-11-26T21:47:47.983Z,98775.75
2018-11-26T21:50:16.723Z,98783.73
2018-11-26T21:52:45.873Z,98783.13
2018-11-26T21:55:15.563Z,98785.47
2018-11-26T21:57:44.024Z,98780.25
2018-11-26T22:00:23.818Z,98784.00
2018-11-26T22:02:53.265Z,98783.11
2018-11-26T22:05:21.786Z,98785.22
2018-11-26T22:07:50.215Z,98791.13
2018-11-26T22:10:21.718Z,98794.58
2018-11-26T22:12:52.125Z,98799.91
2018-11-26T22:15:20.616Z,98797.88
2018-11-26T22:17:49.097Z,98803.75
2018-11-26T22:20:23.796Z,98809.83
2018-11-26T22:22:52.717Z,98817.38
2018-11-26T22:25:21.174Z,98819.41
2018-11-26T22:27:49.702Z,98820.78
2018-11-26T22:30:23.338Z,98825.39
2018-11-26T22:32:51.743Z,98825.13
2018-11-26T22:35:20.217Z,98827.95
2018-11-26T22:37:48.732Z,98829.38
2018-11-26T22:40:22.354Z,98832.22
2018-11-26T22:42:51.286Z,98828.61
2018-11-26T22:45:24.773Z,98839.03
2018-11-26T22:48:10.639Z,98842.78
2018-11-26T22:50:40.513Z,98842.19
2018-11-26T22:53:10.009Z,98850.34
2018-11-26T22:55:38.463Z,98855.86
2018-11-26T22:58:09.449Z,98856.42
2018-11-26T23:00:47.852Z,98853.43
2018-11-26T23:03:17.849Z,98859.45
2018-11-26T23:05:46.366Z,98863.72
2018-11-26T23:08:16.242Z,98872.02
2018-11-26T23:10:44.712Z,98868.68
2018-11-26T23:13:13.202Z,98869.22
2018-11-26T23:15:41.643Z,98868.16
2018-11-26T23:18:10.209Z,98858.83
2018-11-26T23:20:38.648Z,98860.61
2018-11-26T23:23:07.249Z,98854.16
2018-11-26T23:25:35.961Z,98856.36
2018-11-26T23:28:04.557Z,98849.53
2018-11-26T23:30:33.096Z,98859.00
2018-11-26T23:33:02.994Z,98861.74
2018-11-26T23:35:31.465Z,98854.44
2018-11-26T23:37:59.963Z,98858.78
2018-11-26T23:40:28.436Z,98867.80
2018-11-26T23:42:57.502Z,98865.84
2018-11-26T23:45:26.944Z,98860.97
2018-11-26T23:47:55.397Z,98862.32
2018-11-26T23:50:23.990Z,98867.95
2018-11-26T23:52:52.446Z,98878.09
2018-11-26T23:55:22.906Z,98881.04
2018-11-26T23:57:51.439Z,98881.40
